createdAt,value
2024-03-31T00:02:27.631Z,9.97
2024-03-31T00:05:16.804Z,9.92
2024-03-31T00:08:06.308Z,9.89
2024-03-31T00:10:44.453Z,9.86
2024-03-31T00:13:13.280Z,9.84
2024-03-31T00:15:43.869Z,9.80
2024-03-31T00:18:16.814Z,9.78
2024-03-31T00:21:05.677Z,9.74
2024-03-31T00:23:50.870Z,9.71
2024-03-31T00:26:56.092Z,9.66
2024-03-31T00:29:29.542Z,9.61
2024-03-31T00:32:02.937Z,9.59
2024-03-31T00:34:33.607Z,9.55
2024-03-31T00:37:01.625Z,9.50
2024-03-31T00:39:29.807Z,9.43
2024-03-31T00:41:58.199Z,9.38
2024-03-31T00:44:27.732Z,9.31
2024-03-31T00:46:57.968Z,9.23
2024-03-31T00:49:38.583Z,9.23
2024-03-31T00:52:21.895Z,9.23
2024-03-31T00:54:51.412Z,9.23
2024-03-31T00:57:53.994Z,9.23
2024-03-31T01:01:22.258Z,9.24
2024-03-31T01:03:51.074Z,9.24
2024-03-31T01:06:41.917Z,9.27
2024-03-31T01:09:22.014Z,9.31
2024-03-31T01:12:26.557Z,9.33
2024-03-31T01:15:01.420Z,9.37
2024-03-31T01:17:52.294Z,9.39
2024-03-31T01:20:35.509Z,9.38
2024-03-31T01:23:37.236Z,9.39
2024-03-31T01:26:41.238Z,9.40
2024-03-31T01:29:11.062Z,9.40
2024-03-31T01:31:45.030Z,9.39
2024-03-31T01:34:21.340Z,9.38
2024-03-31T01:36:52.677Z,9.40
2024-03-31T01:39:54.271Z,9.44
2024-03-31T01:42:40.846Z,9.49
2024-03-31T01:45:22.539Z,9.53
2024-03-31T01:47:51.233Z,9.55
2024-03-31T01:50:20.345Z,9.58
2024-03-31T01:52:56.135Z,9.60
2024-03-31T01:55:25.263Z,9.62
2024-03-31T01:57:57.038Z,9.65
2024-03-31T02:00:32.017Z,9.67
2024-03-31T02:03:00.473Z,9.68
2024-03-31T02:05:29.625Z,9.70
2024-03-31T02:08:18.800Z,9.73
2024-03-31T02:10:54.378Z,9.80
2024-03-31T02:13:26.055Z,9.89
2024-03-31T02:15:55.569Z,9.96
2024-03-31T02:18:23.779Z,10.00
2024-03-31T02:20:51.969Z,9.99
2024-03-31T02:23:20.659Z,9.97
2024-03-31T02:25:52.431Z,9.94
2024-03-31T02:28:24.345Z,9.91
2024-03-31T02:30:54.237Z,9.89
2024-03-31T02:33:25.100Z,9.89
2024-03-31T02:35:54.153Z,9.89
2024-03-31T02:38:23.249Z,9.88
2024-03-31T02:41:05.290Z,9.88
2024-03-31T02:43:33.568Z,9.92
2024-03-31T02:46:02.135Z,9.97
2024-03-31T02:48:31.140Z,10.02
2024-03-31T02:50:59.700Z,10.06
2024-03-31T02:53:27.896Z,10.10
2024-03-31T02:55:56.106Z,10.13
2024-03-31T02:58:24.455Z,10.15
2024-03-31T03:00:52.856Z,10.17
2024-03-31T03:03:20.996Z,10.19
2024-03-31T03:05:55.498Z,10.22
2024-03-31T03:08:24.166Z,10.26
2024-03-31T03:10:54.526Z,10.28
2024-03-31T03:13:23.400Z,10.27
2024-03-31T03:15:52.313Z,10.26
2024-03-31T03:18:21.622Z,10.24
2024-03-31T03:20:57.899Z,10.23
2024-03-31T03:23:27.567Z,10.25
2024-03-31T03:26:00.281Z,10.27
2024-03-31T03:28:28.674Z,10.30
2024-03-31T03:30:57.002Z,10.34
2024-03-31T03:33:26.143Z,10.37
2024-03-31T03:35:56.745Z,10.37
2024-03-31T03:38:25.136Z,10.39
2024-03-31T03:40:55.126Z,10.41
2024-03-31T03:43:27.167Z,10.41
2024-03-31T03:45:59.060Z,10.39
2024-03-31T03:48:36.674Z,10.39
2024-03-31T03:51:05.394Z,10.40
2024-03-31T03:53:33.576Z,10.42
2024-03-31T03:56:03.511Z,10.42
2024-03-31T03:58:31.766Z,10.40
2024-03-31T04:01:00.158Z,10.37
2024-03-31T04:03:28.499Z,10.35
2024-03-31T04:05:57.414Z,10.31
2024-03-31T04:08:26.479Z,10.29
2024-03-31T04:10:56.082Z,10.27
2024-03-31T04:13:24.938Z,10.26
2024-03-31T04:16:02.587Z,10.24
2024-03-31T04:18:36.147Z,10.19
2024-03-31T04:21:11.315Z,10.19
2024-03-31T04:23:41.223Z,10.19
2024-03-31T04:26:09.272Z,10.19
2024-03-31T04:28:37.462Z,10.17
2024-03-31T04:31:06.821Z,10.14
2024-03-31T04:33:35.153Z,10.12
2024-03-31T04:36:04.080Z,10.08
2024-03-31T04:38:32.957Z,10.08
2024-03-31T04:41:01.399Z,10.08
2024-03-31T04:43:29.822Z,10.08
2024-03-31T04:46:06.196Z,10.05
2024-03-31T04:48:35.535Z,10.02
2024-03-31T04:51:08.521Z,10.00
2024-03-31T04:53:40.525Z,9.95
2024-03-31T04:56:10.669Z,9.93
2024-03-31T04:58:39.070Z,9.89
2024-03-31T05:01:07.810Z,9.87
2024-03-31T05:03:36.194Z,9.86
2024-03-31T05:06:04.621Z,9.88
2024-03-31T05:08:32.802Z,9.90
2024-03-31T05:11:01.618Z,9.95
2024-03-31T05:13:33.618Z,10.01
2024-03-31T05:16:08.676Z,10.05
2024-03-31T05:18:37.977Z,10.12
2024-03-31T05:21:11.298Z,10.17
2024-03-31T05:23:39.457Z,10.24
2024-03-31T05:26:12.311Z,10.33
2024-03-31T05:28:54.965Z,10.40
2024-03-31T05:31:27.753Z,10.49
2024-03-31T05:34:16.156Z,10.58
2024-03-31T05:36:44.522Z,10.68
2024-03-31T05:39:12.982Z,10.82
2024-03-31T05:41:41.414Z,10.95
2024-03-31T05:44:09.559Z,11.11
2024-03-31T05:46:37.669Z,11.25
2024-03-31T05:49:06.223Z,11.39
2024-03-31T05:51:36.211Z,11.52
2024-03-31T05:54:04.478Z,11.66
2024-03-31T05:56:33.555Z,11.78
2024-03-31T05:59:03.951Z,11.92
2024-03-31T06:01:33.433Z,12.06
2024-03-31T06:04:01.639Z,12.21
2024-03-31T06:06:30.677Z,12.36
2024-03-31T06:08:58.955Z,12.50
2024-03-31T06:11:27.284Z,12.67
2024-03-31T06:13:56.279Z,12.87
2024-03-31T06:16:24.516Z,13.10
2024-03-31T06:18:52.678Z,13.35
2024-03-31T06:21:23.162Z,13.59
2024-03-31T06:23:51.745Z,13.80
2024-03-31T06:26:20.128Z,14.02
2024-03-31T06:28:48.705Z,14.23
2024-03-31T06:31:16.832Z,14.43
2024-03-31T06:33:48.463Z,14.63
2024-03-31T06:36:16.654Z,14.81
2024-03-31T06:38:44.855Z,14.98
2024-03-31T06:41:13.217Z,15.13
2024-03-31T06:43:41.453Z,15.28
2024-03-31T06:46:09.789Z,15.43
2024-03-31T06:48:37.985Z,15.59
2024-03-31T06:51:08.652Z,15.75
2024-03-31T06:53:37.364Z,15.89
2024-03-31T06:56:05.840Z,16.03
2024-03-31T06:58:34.638Z,16.16
2024-03-31T07:01:03.231Z,16.30
2024-03-31T07:03:31.945Z,16.46
2024-03-31T07:06:00.240Z,16.67
2024-03-31T07:08:29.067Z,16.93
2024-03-31T07:10:59.035Z,17.19
2024-03-31T07:13:27.509Z,17.48
2024-03-31T07:15:56.083Z,17.75
2024-03-31T07:18:26.728Z,18.01
2024-03-31T07:20:54.872Z,18.23
2024-03-31T07:23:24.367Z,18.41
2024-03-31T07:25:52.465Z,18.58
2024-03-31T07:28:23.165Z,18.73
2024-03-31T07:30:51.460Z,18.88
2024-03-31T07:33:19.857Z,18.99
2024-03-31T07:35:48.112Z,19.11
2024-03-31T07:38:16.194Z,19.21
2024-03-31T07:40:44.280Z,19.31
2024-03-31T07:43:12.274Z,19.38
2024-03-31T07:45:42.824Z,19.45
2024-03-31T07:48:10.919Z,19.53
2024-03-31T07:50:38.943Z,19.63
2024-03-31T07:53:08.157Z,19.75
2024-03-31T07:55:37.485Z,19.91
2024-03-31T07:58:06.610Z,20.03
2024-03-31T08:00:34.811Z,20.14
2024-03-31T08:03:02.911Z,20.23
2024-03-31T08:05:33.255Z,20.33
2024-03-31T08:08:03.995Z,20.45
2024-03-31T08:10:31.951Z,20.57
2024-03-31T08:13:02.882Z,20.67
2024-03-31T08:15:33.279Z,20.75
2024-03-31T08:18:01.225Z,20.79
2024-03-31T08:20:29.966Z,20.86
2024-03-31T08:22:57.987Z,20.97
2024-03-31T08:25:28.335Z,21.07
2024-03-31T08:27:56.290Z,21.22
2024-03-31T08:30:24.825Z,21.36
2024-03-31T08:32:52.994Z,21.52
2024-03-31T08:35:21.037Z,21.67
2024-03-31T08:37:49.031Z,21.83
2024-03-31T08:40:17.409Z,21.99
2024-03-31T08:42:52.332Z,22.16
2024-03-31T08:45:22.173Z,22.33
2024-03-31T08:47:57.850Z,22.51
2024-03-31T08:50:26.498Z,22.67
2024-03-31T08:52:55.395Z,22.80
2024-03-31T08:55:23.855Z,22.91
2024-03-31T08:57:54.039Z,23.00
2024-03-31T09:00:22.101Z,23.07
2024-03-31T09:02:50.608Z,23.13
2024-03-31T09:05:19.239Z,23.18
2024-03-31T09:07:47.539Z,23.20
2024-03-31T09:10:15.523Z,23.20
2024-03-31T09:12:46.469Z,23.16
2024-03-31T09:15:17.048Z,23.11
2024-03-31T09:17:45.020Z,23.10
2024-03-31T09:20:13.183Z,23.14
2024-03-31T09:22:42.049Z,23.22
2024-03-31T09:25:10.273Z,23.28
2024-03-31T09:27:38.494Z,23.34
2024-03-31T09:30:09.353Z,23.45
2024-03-31T09:32:39.954Z,23.55
2024-03-31T09:35:08.606Z,23.63
2024-03-31T09:37:38.028Z,23.73
2024-03-31T09:40:06.301Z,23.83
2024-03-31T09:42:37.262Z,23.91
2024-03-31T09:45:14.316Z,23.99
2024-03-31T09:47:49.731Z,24.06
2024-03-31T09:50:23.684Z,24.12
2024-03-31T09:52:59.677Z,24.14
2024-03-31T09:55:38.631Z,24.16
2024-03-31T09:58:12.724Z,24.16
2024-03-31T10:00:46.001Z,24.15
2024-03-31T10:03:21.446Z,24.16
2024-03-31T10:05:50.649Z,24.13
2024-03-31T10:08:21.409Z,24.12
2024-03-31T10:10:52.610Z,24.14
2024-03-31T10:13:21.850Z,24.16
2024-03-31T10:15:51.807Z,24.16
2024-03-31T10:18:25.607Z,24.17
2024-03-31T10:20:54.430Z,24.20
2024-03-31T10:23:23.093Z,24.23
2024-03-31T10:25:53.276Z,24.24
2024-03-31T10:28:22.535Z,24.28
2024-03-31T10:30:50.600Z,24.30
2024-03-31T10:33:32.597Z,24.33
2024-03-31T10:36:05.993Z,24.37
2024-03-31T10:38:34.199Z,24.45
2024-03-31T10:41:05.799Z,24.52
2024-03-31T10:43:37.605Z,24.60
2024-03-31T10:46:08.035Z,24.59
2024-03-31T10:48:36.997Z,24.62
2024-03-31T10:51:17.247Z,24.67
2024-03-31T10:53:45.410Z,24.73
2024-03-31T10:56:13.586Z,24.81
2024-03-31T10:58:42.965Z,24.87
2024-03-31T11:01:18.332Z,24.92
2024-03-31T11:03:48.066Z,24.93
2024-03-31T11:06:19.663Z,24.91
2024-03-31T11:08:47.679Z,24.87
2024-03-31T11:11:17.487Z,24.87
2024-03-31T11:13:46.574Z,24.90
2024-03-31T11:16:20.711Z,24.92
2024-03-31T11:18:53.146Z,24.95
2024-03-31T11:21:21.222Z,24.97
2024-03-31T11:23:52.214Z,24.99
2024-03-31T11:26:23.109Z,25.00
2024-03-31T11:28:55.741Z,25.01
2024-03-31T11:31:26.421Z,25.00
2024-03-31T11:33:55.675Z,24.97
2024-03-31T11:36:23.666Z,24.94
2024-03-31T11:38:51.834Z,24.93
2024-03-31T11:41:20.313Z,24.88
2024-03-31T11:43:48.600Z,24.81
2024-03-31T11:46:20.680Z,24.80
2024-03-31T11:48:49.191Z,24.81
2024-03-31T11:51:17.802Z,24.82
2024-03-31T11:53:46.038Z,24.82
2024-03-31T11:56:14.074Z,24.79
2024-03-31T11:58:42.083Z,24.71
2024-03-31T12:01:10.156Z,24.65
2024-03-31T12:03:40.663Z,24.58
2024-03-31T12:06:09.010Z,24.51
2024-03-31T12:08:46.444Z,24.44
2024-03-31T12:11:15.929Z,24.34
2024-03-31T12:13:53.492Z,24.23
2024-03-31T12:16:23.735Z,24.15
2024-03-31T12:18:51.738Z,24.08
2024-03-31T12:21:24.128Z,24.02
2024-03-31T12:23:53.925Z,24.01
2024-03-31T12:26:24.734Z,24.03
2024-03-31T12:28:59.141Z,24.07
2024-03-31T12:31:27.986Z,24.12
2024-03-31T12:33:56.264Z,24.12
2024-03-31T12:36:24.364Z,24.03
2024-03-31T12:38:52.491Z,23.95
2024-03-31T12:41:22.353Z,23.90
2024-03-31T12:43:51.718Z,23.85
2024-03-31T12:46:20.159Z,23.88
2024-03-31T12:48:48.092Z,23.93
2024-03-31T12:51:25.292Z,24.01
2024-03-31T12:53:53.374Z,24.12
2024-03-31T12:56:21.759Z,24.20
2024-03-31T12:58:53.582Z,24.24
2024-03-31T13:01:24.297Z,24.26
2024-03-31T13:03:53.265Z,24.27
2024-03-31T13:06:21.254Z,24.26
2024-03-31T13:08:51.259Z,24.19
2024-03-31T13:11:19.215Z,24.16
2024-03-31T13:13:49.452Z,24.14
2024-03-31T13:16:19.881Z,24.15
2024-03-31T13:18:47.810Z,24.17
2024-03-31T13:21:21.426Z,24.21
2024-03-31T13:23:49.480Z,24.28
2024-03-31T13:26:17.440Z,24.32
2024-03-31T13:28:45.390Z,24.31
2024-03-31T13:31:13.707Z,24.29
2024-03-31T13:33:41.986Z,24.27
2024-03-31T13:36:09.874Z,24.24
2024-03-31T13:38:38.197Z,24.19
2024-03-31T13:41:06.171Z,24.10
2024-03-31T13:43:39.233Z,23.98
2024-03-31T13:46:07.186Z,23.87
2024-03-31T13:48:37.336Z,23.82
2024-03-31T13:51:07.874Z,23.87
2024-03-31T13:53:35.751Z,23.95
2024-03-31T13:56:03.817Z,23.99
2024-03-31T13:58:31.780Z,23.99
2024-03-31T14:01:02.310Z,23.95
2024-03-31T14:03:32.713Z,23.87
2024-03-31T14:06:00.749Z,23.76
2024-03-31T14:08:31.310Z,23.69
2024-03-31T14:11:00.791Z,23.64
2024-03-31T14:13:31.453Z,23.60
2024-03-31T14:16:00.328Z,23.57
2024-03-31T14:18:30.397Z,23.51
2024-03-31T14:20:58.308Z,23.43
2024-03-31T14:23:26.294Z,23.36
2024-03-31T14:25:54.249Z,23.33
2024-03-31T14:28:22.234Z,23.29
2024-03-31T14:30:50.494Z,23.25
2024-03-31T14:33:18.420Z,23.21
2024-03-31T14:35:46.438Z,23.15
2024-03-31T14:38:16.636Z,23.10
2024-03-31T14:40:44.670Z,23.05
2024-03-31T14:43:12.902Z,23.00
2024-03-31T14:45:47.511Z,22.98
2024-03-31T14:48:20.131Z,23.00
2024-03-31T14:50:50.520Z,23.05
2024-03-31T14:53:21.028Z,23.08
2024-03-31T14:55:49.027Z,23.11
2024-03-31T14:58:17.017Z,23.10
2024-03-31T15:00:44.985Z,23.08
2024-03-31T15:03:15.021Z,23.03
2024-03-31T15:05:54.079Z,22.99
2024-03-31T15:08:23.404Z,22.94
2024-03-31T15:10:51.404Z,22.89
2024-03-31T15:13:19.426Z,22.85
2024-03-31T15:15:47.391Z,22.81
2024-03-31T15:18:15.356Z,22.76
2024-03-31T15:20:45.917Z,22.69
2024-03-31T15:23:14.778Z,22.60
2024-03-31T15:25:45.191Z,22.55
2024-03-31T15:28:17.864Z,22.51
2024-03-31T15:30:55.691Z,22.49
2024-03-31T15:33:23.776Z,22.44
2024-03-31T15:35:51.839Z,22.43
2024-03-31T15:38:19.911Z,22.42
2024-03-31T15:40:48.097Z,22.42
2024-03-31T15:43:16.079Z,22.41
2024-03-31T15:45:57.529Z,22.40
2024-03-31T15:48:27.983Z,22.37
2024-03-31T15:50:55.945Z,22.35
2024-03-31T15:53:24.063Z,22.31
2024-03-31T15:55:52.078Z,22.27
2024-03-31T15:58:20.327Z,22.23
2024-03-31T16:00:48.659Z,22.17
2024-03-31T16:03:16.683Z,22.11
2024-03-31T16:05:46.717Z,22.04
2024-03-31T16:08:14.781Z,21.97
2024-03-31T16:10:44.015Z,21.89
2024-03-31T16:13:11.991Z,21.82
2024-03-31T16:15:41.165Z,21.76
2024-03-31T16:18:09.212Z,21.72
2024-03-31T16:20:37.474Z,21.67
2024-03-31T16:23:07.822Z,21.64
2024-03-31T16:25:42.706Z,21.61
2024-03-31T16:28:10.840Z,21.58
2024-03-31T16:30:43.050Z,21.56
2024-03-31T16:33:11.759Z,21.55
2024-03-31T16:35:39.727Z,21.53
2024-03-31T16:38:07.744Z,21.50
2024-03-31T16:40:40.526Z,21.45
2024-03-31T16:43:12.374Z,21.41
2024-03-31T16:45:40.353Z,21.35
2024-03-31T16:48:08.760Z,21.27
2024-03-31T16:50:36.711Z,21.19
2024-03-31T16:53:05.128Z,21.11
2024-03-31T16:55:33.183Z,21.03
2024-03-31T16:58:01.305Z,20.95
2024-03-31T17:00:29.321Z,20.88
2024-03-31T17:02:57.422Z,20.82
2024-03-31T17:05:25.920Z,20.75
2024-03-31T17:07:53.976Z,20.69
2024-03-31T17:10:24.200Z,20.64
2024-03-31T17:12:54.615Z,20.56
2024-03-31T17:15:22.655Z,20.47
2024-03-31T17:17:50.715Z,20.40
2024-03-31T17:20:18.670Z,20.33
2024-03-31T17:22:47.135Z,20.26
2024-03-31T17:25:17.340Z,20.19
2024-03-31T17:27:46.880Z,20.12
2024-03-31T17:30:20.098Z,20.05
2024-03-31T17:32:49.124Z,19.97
2024-03-31T17:35:17.353Z,19.89
2024-03-31T17:37:45.414Z,19.80
2024-03-31T17:40:13.423Z,19.74
2024-03-31T17:42:46.169Z,19.67
2024-03-31T17:45:14.155Z,19.60
2024-03-31T17:47:42.080Z,19.53
2024-03-31T17:50:10.204Z,19.44
2024-03-31T17:52:38.280Z,19.37
2024-03-31T17:55:06.597Z,19.32
2024-03-31T17:57:34.583Z,19.25
2024-03-31T18:00:02.586Z,19.17
2024-03-31T18:02:35.007Z,19.10
2024-03-31T18:05:04.467Z,19.02
2024-03-31T18:07:35.988Z,18.95
2024-03-31T18:10:05.270Z,18.86
2024-03-31T18:12:33.524Z,18.79
2024-03-31T18:15:05.543Z,18.73
2024-03-31T18:17:33.564Z,18.69
2024-03-31T18:20:01.678Z,18.64
2024-03-31T18:22:29.825Z,18.60
2024-03-31T18:25:02.903Z,18.54
2024-03-31T18:27:32.598Z,18.49
2024-03-31T18:30:00.557Z,18.45
2024-03-31T18:32:28.746Z,18.42
2024-03-31T18:34:56.757Z,18.39
2024-03-31T18:37:24.905Z,18.36
2024-03-31T18:39:53.187Z,18.33
2024-03-31T18:42:23.675Z,18.30
2024-03-31T18:44:51.591Z,18.30
2024-03-31T18:47:19.674Z,18.29
2024-03-31T18:49:48.817Z,18.27
2024-03-31T18:52:20.307Z,18.27
2024-03-31T18:54:48.448Z,18.24
2024-03-31T18:57:21.868Z,18.25
2024-03-31T18:59:52.585Z,18.26
2024-03-31T19:02:22.781Z,18.27
2024-03-31T19:04:55.990Z,18.27
2024-03-31T19:07:26.579Z,18.27
2024-03-31T19:09:59.451Z,18.26
2024-03-31T19:12:29.690Z,18.26
2024-03-31T19:14:57.671Z,18.26
2024-03-31T19:17:28.146Z,18.25
2024-03-31T19:19:56.300Z,18.23
2024-03-31T19:22:24.289Z,18.21
2024-03-31T19:24:54.737Z,18.20
2024-03-31T19:27:28.642Z,18.18
2024-03-31T19:30:00.255Z,18.16
2024-03-31T19:32:30.567Z,18.16
2024-03-31T19:34:58.757Z,18.16
2024-03-31T19:37:28.045Z,18.16
2024-03-31T19:39:58.553Z,18.16
2024-03-31T19:42:29.028Z,18.16
2024-03-31T19:44:57.068Z,18.15
2024-03-31T19:47:25.255Z,18.13
2024-03-31T19:49:55.730Z,18.12
2024-03-31T19:52:25.900Z,18.12
2024-03-31T19:54:56.053Z,18.10
2024-03-31T19:57:26.453Z,18.09
2024-03-31T19:59:54.448Z,18.07
2024-03-31T20:02:22.793Z,18.04
2024-03-31T20:04:53.049Z,18.02
2024-03-31T20:07:21.168Z,18.00
2024-03-31T20:09:49.269Z,17.96
2024-03-31T20:12:18.748Z,17.93
2024-03-31T20:14:54.014Z,17.89
2024-03-31T20:17:21.978Z,17.85
2024-03-31T20:19:50.073Z,17.81
2024-03-31T20:22:18.051Z,17.78
2024-03-31T20:24:52.076Z,17.72
2024-03-31T20:27:20.603Z,17.66
2024-03-31T20:29:49.796Z,17.60
2024-03-31T20:32:17.703Z,17.55
2024-03-31T20:34:48.268Z,17.48
2024-03-31T20:37:16.335Z,17.43
2024-03-31T20:39:44.531Z,17.39
2024-03-31T20:42:12.952Z,17.34
2024-03-31T20:44:41.015Z,17.29
2024-03-31T20:47:09.550Z,17.26
2024-03-31T20:49:37.562Z,17.22
2024-03-31T20:52:08.063Z,17.18
2024-03-31T20:54:36.142Z,17.14
2024-03-31T20:57:04.535Z,17.10
2024-03-31T20:59:34.686Z,17.04
2024-03-31T21:02:02.667Z,16.98
2024-03-31T21:04:33.055Z,16.93
2024-03-31T21:07:05.561Z,16.88
2024-03-31T21:09:34.183Z,16.83
2024-03-31T21:12:06.235Z,16.76
2024-03-31T21:14:34.946Z,16.71
2024-03-31T21:17:05.149Z,16.67
2024-03-31T21:19:34.178Z,16.62
2024-03-31T21:22:05.695Z,16.57
2024-03-31T21:24:34.912Z,16.52
2024-03-31T21:27:08.567Z,16.49
2024-03-31T21:29:36.947Z,16.46
2024-03-31T21:32:05.386Z,16.42
2024-03-31T21:34:33.942Z,16.40
2024-03-31T21:37:02.416Z,16.39
2024-03-31T21:39:30.571Z,16.38
2024-03-31T21:41:58.780Z,16.38
2024-03-31T21:44:26.933Z,16.38
2024-03-31T21:46:57.615Z,16.38
2024-03-31T21:49:25.832Z,16.37
2024-03-31T21:51:54.332Z,16.36
2024-03-31T21:54:25.917Z,16.35
2024-03-31T21:57:07.622Z,16.33
2024-03-31T21:59:40.638Z,16.31
2024-03-31T22:02:12.405Z,16.28
2024-03-31T22:04:40.467Z,16.27
2024-03-31T22:07:10.886Z,16.25
2024-03-31T22:09:39.005Z,16.23
2024-03-31T22:12:07.840Z,16.20
2024-03-31T22:14:36.229Z,16.20
2024-03-31T22:17:04.614Z,16.19
2024-03-31T22:19:32.759Z,16.19
2024-03-31T22:22:01.080Z,16.18
2024-03-31T22:24:29.128Z,16.16
2024-03-31T22:26:57.256Z,16.13
2024-03-31T22:29:25.471Z,16.10
2024-03-31T22:31:53.711Z,16.07
2024-03-31T22:34:21.851Z,16.03
2024-03-31T22:36:50.002Z,16.00
2024-03-31T22:39:18.338Z,15.97
2024-03-31T22:41:46.683Z,15.94
2024-03-31T22:44:17.139Z,15.90
2024-03-31T22:46:47.767Z,15.85
2024-03-31T22:49:16.155Z,15.81
2024-03-31T22:51:44.500Z,15.77
2024-03-31T22:54:12.557Z,15.73
2024-03-31T22:56:40.467Z,15.68
2024-03-31T22:59:08.903Z,15.63
2024-03-31T23:01:36.865Z,15.60
2024-03-31T23:04:07.362Z,15.55
2024-03-31T23:06:35.652Z,15.51
2024-03-31T23:09:04.176Z,15.47
2024-03-31T23:11:34.901Z,15.44
2024-03-31T23:14:03.032Z,15.43
2024-03-31T23:16:31.208Z,15.42
2024-03-31T23:19:01.545Z,15.41
2024-03-31T23:21:33.576Z,15.41
2024-03-31T23:24:01.698Z,15.40
2024-03-31T23:26:29.755Z,15.39
2024-03-31T23:28:57.833Z,15.37
2024-03-31T23:31:26.288Z,15.35
2024-03-31T23:33:56.708Z,15.33
2024-03-31T23:36:25.208Z,15.32
2024-03-31T23:38:56.190Z,15.29
2024-03-31T23:41:24.346Z,15.26
2024-03-31T23:43:55.202Z,15.24
2024-03-31T23:46:23.331Z,15.21
2024-03-31T23:48:51.651Z,15.18
2024-03-31T23:51:22.393Z,15.15
2024-03-31T23:53:53.341Z,15.11
2024-03-31T23:56:21.494Z,15.07
2024-03-31T23:58:49.706Z,15.03
